Time;durP1;ratioP1;P1;durP2;ratioP2;P2;SDS_P1;SDS_P2;PMS_P1;PMS_P2;Temp;Humidity;BMP_temperature;BMP_pressure;BME280_temperature;BME280_humidity;BME280_pressure;Samples;Min_cycle;Max_cycle;Signal;HPM_P1;HPM_P2
2021/04/24 00:01:59;;;;;;;13.25;8.73;;;16.20;53.20;;;;;;4942143;28;20039;-60
2021/04/24 00:04:26;;;;;;;13.80;9.57;;;16.20;52.80;;;;;;4942735;28;20043;-60
2021/04/24 00:06:52;;;;;;;13.57;9.07;;;16.30;52.70;;;;;;4956059;28;20050;-60
2021/04/24 00:09:18;;;;;;;12.90;8.00;;;16.30;52.40;;;;;;4943227;28;20407;-60
2021/04/24 00:11:44;;;;;;;12.88;7.95;;;16.30;52.30;;;;;;4955037;28;20043;-61
2021/04/24 00:14:10;;;;;;;11.73;8.20;;;16.40;51.90;;;;;;4940725;28;20044;-61
2021/04/24 00:16:36;;;;;;;11.77;8.45;;;16.40;51.60;;;;;;4941855;28;20047;-62
2021/04/24 00:19:06;;;;;;;14.45;7.97;;;16.40;51.50;;;;;;4955242;28;20054;-61
2021/04/24 00:21:32;;;;;;;11.98;7.88;;;16.40;51.30;;;;;;4941086;28;20031;-59
2021/04/24 00:23:58;;;;;;;14.88;8.10;;;16.40;51.30;;;;;;4942646;28;20043;-58
2021/04/24 00:26:26;;;;;;;12.40;8.30;;;16.40;51.30;;;;;;4940351;28;20035;-58
2021/04/24 00:28:51;;;;;;;16.83;8.68;;;16.40;51.50;;;;;;4955780;28;20035;-59
2021/04/24 00:31:17;;;;;;;13.52;7.40;;;16.40;51.60;;;;;;4941764;28;20070;-63
2021/04/24 00:33:43;;;;;;;13.48;7.53;;;16.40;51.60;;;;;;4940591;28;20050;-63
2021/04/24 00:36:10;;;;;;;10.07;7.47;;;16.40;51.50;;;;;;4942193;28;20039;-64
2021/04/24 00:38:36;;;;;;;11.65;7.03;;;16.40;51.20;;;;;;4940937;28;20463;-63
2021/04/24 00:41:02;;;;;;;11.02;7.60;;;16.40;51.20;;;;;;4940492;28;20130;-64
2021/04/24 00:43:28;;;;;;;11.13;7.32;;;16.30;51.30;;;;;;4954730;28;20134;-63
2021/04/24 00:45:54;;;;;;;10.73;7.10;;;16.30;51.10;;;;;;4941588;28;20050;-63
2021/04/24 00:48:19;;;;;;;9.55;6.38;;;16.30;51.00;;;;;;4941578;28;20042;-63
2021/04/24 00:50:45;;;;;;;9.93;6.82;;;16.30;50.90;;;;;;4941815;28;20047;-63
2021/04/24 00:53:12;;;;;;;9.88;6.57;;;16.30;50.80;;;;;;4939728;28;20122;-63
2021/04/24 00:55:39;;;;;;;8.90;6.22;;;16.30;50.80;;;;;;4940230;28;20035;-63
2021/04/24 00:58:09;;;;;;;9.63;6.15;;;16.20;51.00;;;;;;4941482;28;20071;-64
2021/04/24 01:00:35;;;;;;;10.38;6.65;;;16.20;50.90;;;;;;4941433;28;22206;-63
2021/04/24 01:03:00;;;;;;;9.43;6.30;;;16.20;51.00;;;;;;4941741;28;20054;-64
2021/04/24 01:05:30;;;;;;;9.57;7.18;;;16.20;51.00;;;;;;4941801;28;20111;-63
2021/04/24 01:07:56;;;;;;;8.63;6.10;;;16.20;51.00;;;;;;4942361;28;20036;-63
2021/04/24 01:10:23;;;;;;;8.73;5.78;;;16.10;51.00;;;;;;4941448;28;20035;-64
2021/04/24 01:12:49;;;;;;;8.68;5.80;;;16.10;50.90;;;;;;4940221;28;20048;-63
2021/04/24 01:15:18;;;;;;;9.82;5.93;;;16.10;50.90;;;;;;4941145;28;20073;-64
2021/04/24 01:17:44;;;;;;;9.05;6.00;;;16.10;50.90;;;;;;4953442;28;20102;-63
2021/04/24 01:20:12;;;;;;;8.20;4.93;;;16.20;50.90;;;;;;4941640;28;20035;-63
2021/04/24 01:22:40;;;;;;;8.32;5.05;;;16.20;50.80;;;;;;4941969;28;20451;-63
2021/04/24 01:25:08;;;;;;;7.63;5.28;;;16.20;50.50;;;;;;4940529;28;20102;-64
2021/04/24 01:27:34;;;;;;;8.20;5.40;;;16.20;50.40;;;;;;4938591;28;20478;-63
2021/04/24 01:30:01;;;;;;;5.65;4.50;;;16.20;50.30;;;;;;4938430;28;20038;-63
2021/04/24 01:32:27;;;;;;;8.73;5.38;;;16.20;50.30;;;;;;4940756;28;20450;-63
2021/04/24 01:34:53;;;;;;;7.75;5.10;;;16.20;50.20;;;;;;4940756;28;20047;-63
2021/04/24 01:37:19;;;;;;;8.25;5.10;;;16.20;50.10;;;;;;4954189;28;20059;-63
2021/04/24 01:39:45;;;;;;;6.88;5.03;;;16.20;50.10;;;;;;4941268;28;20494;-64
2021/04/24 01:42:11;;;;;;;7.75;4.72;;;16.20;50.30;;;;;;4940570;28;20039;-64
2021/04/24 01:44:37;;;;;;;7.55;5.30;;;16.10;50.50;;;;;;4940895;28;20110;-64
2021/04/24 01:47:03;;;;;;;7.65;4.88;;;16.10;50.60;;;;;;4940975;28;20356;-64
2021/04/24 01:49:28;;;;;;;8.93;4.95;;;16.20;50.60;;;;;;4940565;28;20779;-64
2021/04/24 01:51:54;;;;;;;7.68;5.10;;;16.20;50.40;;;;;;4940021;28;20055;-63
2021/04/24 01:54:20;;;;;;;10.68;5.20;;;16.20;50.10;;;;;;4941099;28;20043;-63
2021/04/24 01:56:50;;;;;;;9.00;5.00;;;16.10;50.10;;;;;;4940213;28;20031;-64
2021/04/24 01:59:18;;;;;;;6.22;4.38;;;16.10;50.30;;;;;;4939245;28;20043;-63
2021/04/24 02:01:48;;;;;;;7.38;4.57;;;16.10;50.20;;;;;;4940532;28;20066;-64
2021/04/24 02:04:15;;;;;;;9.98;5.00;;;16.10;50.30;;;;;;4940295;28;20032;-64
2021/04/24 02:06:42;;;;;;;8.02;4.43;;;16.00;50.40;;;;;;4941371;28;20062;-64
2021/04/24 02:09:10;;;;;;;5.93;4.05;;;16.00;50.70;;;;;;4941260;28;20035;-64
2021/04/24 02:11:36;;;;;;;6.10;4.20;;;16.00;51.00;;;;;;4940374;28;20039;-65
2021/04/24 02:14:05;;;;;;;6.05;3.90;;;16.00;51.10;;;;;;4954190;28;20050;-65
2021/04/24 02:16:31;;;;;;;5.68;3.90;;;16.10;50.90;;;;;;4940967;28;20055;-64
2021/04/24 02:18:58;;;;;;;5.20;4.00;;;16.00;50.80;;;;;;4938993;28;20052;-65
2021/04/24 02:21:24;;;;;;;6.60;4.78;;;16.00;51.00;;;;;;4939614;28;20035;-64
2021/04/24 02:23:49;;;;;;;6.07;3.83;;;16.00;50.80;;;;;;4940806;28;20043;-65
2021/04/24 02:26:15;;;;;;;6.55;4.18;;;15.90;50.60;;;;;;4939941;28;20143;-65
2021/04/24 02:28:41;;;;;;;6.10;3.85;;;15.90;50.60;;;;;;4940389;28;20126;-65
2021/04/24 02:31:07;;;;;;;9.38;4.10;;;15.80;50.60;;;;;;4940445;28;20039;-65
2021/04/24 02:33:32;;;;;;;7.72;3.55;;;15.80;50.70;;;;;;4940248;28;20059;-65
2021/04/24 02:36:00;;;;;;;5.82;3.58;;;15.80;50.90;;;;;;4941124;28;20035;-66
2021/04/24 02:38:32;;;;;;;7.10;3.78;;;15.80;51.40;;;;;;4940515;28;20067;-64
2021/04/24 02:41:00;;;;;;;12.18;3.95;;;15.90;51.10;;;;;;4953556;28;20043;-65
2021/04/24 02:43:26;;;;;;;3.88;3.38;;;15.80;51.00;;;;;;4940713;28;20036;-65
2021/04/24 02:45:53;;;;;;;5.82;4.20;;;15.80;51.40;;;;;;4941157;28;20095;-65
2021/04/24 02:48:19;;;;;;;8.07;3.53;;;15.80;51.10;;;;;;4941920;28;20503;-64
2021/04/24 02:50:46;;;;;;;6.47;4.03;;;15.90;51.00;;;;;;4940730;28;20039;-65
2021/04/24 02:53:13;;;;;;;6.20;3.60;;;15.90;50.80;;;;;;4941653;28;20546;-65
2021/04/24 02:55:40;;;;;;;5.50;3.78;;;16.00;51.00;;;;;;4941584;28;20086;-65
2021/04/24 02:58:05;;;;;;;7.22;4.22;;;16.00;51.10;;;;;;4939483;28;20047;-65
2021/04/24 03:00:31;;;;;;;4.90;3.67;;;15.90;51.20;;;;;;4952756;28;20455;-65
2021/04/24 03:03:14;;;;;;;6.35;3.22;;;16.00;51.10;;;;;;4942669;28;20468;-65
2021/04/24 03:05:41;;;;;;;4.80;3.35;;;16.00;51.20;;;;;;4940316;28;20044;-65
2021/04/24 03:08:09;;;;;;;6.03;3.20;;;16.00;51.30;;;;;;4943330;28;20115;-65
2021/04/24 03:10:39;;;;;;;7.30;3.75;;;16.00;51.30;;;;;;4944452;28;20043;-65
2021/04/24 03:13:06;;;;;;;4.63;3.20;;;16.00;51.50;;;;;;4944207;28;20046;-65
2021/04/24 03:15:32;;;;;;;5.72;3.30;;;16.00;51.10;;;;;;4943425;28;20098;-65
2021/04/24 03:17:58;;;;;;;6.15;3.67;;;16.00;50.90;;;;;;4943984;28;20098;-64
2021/04/24 03:20:24;;;;;;;6.85;3.38;;;16.00;50.90;;;;;;4942635;28;20101;-64
2021/04/24 03:22:51;;;;;;;5.05;3.40;;;16.00;50.80;;;;;;4942736;28;20075;-64
2021/04/24 03:25:17;;;;;;;4.25;2.72;;;16.00;50.60;;;;;;4944637;28;20046;-64
2021/04/24 03:27:43;;;;;;;5.43;3.13;;;16.00;50.50;;;;;;4943398;28;20039;-64
2021/04/24 03:30:11;;;;;;;5.40;3.30;;;16.00;50.40;;;;;;4943772;28;20072;-64
2021/04/24 03:32:37;;;;;;;5.20;3.30;;;16.00;50.40;;;;;;4943649;28;20062;-60
2021/04/24 03:35:04;;;;;;;3.97;2.67;;;16.00;50.60;;;;;;4942132;28;20039;-59
2021/04/24 03:37:31;;;;;;;6.28;3.67;;;16.00;50.40;;;;;;4943837;28;20035;-59
2021/04/24 03:39:57;;;;;;;3.65;2.97;;;16.00;50.40;;;;;;4943677;28;20039;-59
2021/04/24 03:42:23;;;;;;;4.68;3.08;;;16.00;50.30;;;;;;4944796;28;20054;-60
2021/04/24 03:44:49;;;;;;;5.82;3.10;;;16.00;50.30;;;;;;4939659;28;20130;-59
2021/04/24 03:47:15;;;;;;;5.55;3.63;;;16.10;50.20;;;;;;4942484;28;20066;-58
2021/04/24 03:49:41;;;;;;;4.50;3.00;;;16.00;50.30;;;;;;4942998;28;20407;-59
2021/04/24 03:52:07;;;;;;;4.05;2.75;;;16.00;50.20;;;;;;4943032;28;20063;-59
2021/04/24 03:54:33;;;;;;;4.78;3.05;;;16.00;50.20;;;;;;4942952;28;20634;-58
2021/04/24 03:56:59;;;;;;;4.00;3.00;;;16.00;50.30;;;;;;4944544;28;20154;-59
2021/04/24 03:59:25;;;;;;;7.10;3.50;;;15.90;50.50;;;;;;4942434;28;20043;-58
2021/04/24 04:01:51;;;;;;;5.72;2.80;;;15.90;50.20;;;;;;4943846;28;20046;-58
2021/04/24 04:04:17;;;;;;;11.73;3.05;;;15.80;49.60;;;;;;4942767;28;20120;-58
2021/04/24 04:06:43;;;;;;;5.38;2.65;;;15.70;50.70;;;;;;4942572;28;22307;-58
2021/04/24 04:09:09;;;;;;;4.38;2.47;;;15.70;50.90;;;;;;4943410;28;20106;-58
2021/04/24 04:11:35;;;;;;;5.75;2.85;;;15.80;50.80;;;;;;4943265;28;20380;-58
2021/04/24 04:14:00;;;;;;;4.30;2.63;;;15.90;50.70;;;;;;4941575;28;20181;-58
2021/04/24 04:16:26;;;;;;;5.55;3.17;;;15.90;50.40;;;;;;4942816;28;20055;-58
2021/04/24 04:18:52;;;;;;;5.47;2.60;;;15.90;50.30;;;;;;4941354;28;20120;-58
2021/04/24 04:21:19;;;;;;;6.35;2.83;;;15.90;49.50;;;;;;4942491;28;20078;-59
2021/04/24 04:23:44;;;;;;;4.78;2.45;;;15.90;49.80;;;;;;4940508;28;20051;-59
2021/04/24 04:26:10;;;;;;;5.72;2.72;;;15.80;50.10;;;;;;4939410;28;20094;-59
2021/04/24 04:28:36;;;;;;;4.10;2.40;;;15.80;50.20;;;;;;4942295;28;20223;-59
2021/04/24 04:31:02;;;;;;;4.90;2.92;;;15.80;50.20;;;;;;4941663;28;20039;-59
2021/04/24 04:33:28;;;;;;;6.38;2.90;;;15.90;50.70;;;;;;4941581;28;20039;-59
2021/04/24 04:35:55;;;;;;;3.55;2.50;;;15.90;50.10;;;;;;4941827;28;20046;-58
2021/04/24 04:38:21;;;;;;;6.40;2.60;;;15.90;50.10;;;;;;4940578;28;20047;-58
2021/04/24 04:40:47;;;;;;;5.95;1.88;;;15.90;49.20;;;;;;4942599;28;20049;-59
2021/04/24 04:43:14;;;;;;;6.15;2.60;;;15.40;47.60;;;;;;4942041;28;20043;-59
2021/04/24 04:45:40;;;;;;;5.00;2.42;;;15.00;49.80;;;;;;4955209;28;20037;-59
2021/04/24 04:48:07;;;;;;;8.05;2.15;;;14.90;50.20;;;;;;4941823;28;20056;-58
2021/04/24 04:50:37;;;;;;;4.70;2.08;;;14.70;50.30;;;;;;4941463;28;20125;-59
2021/04/24 04:53:04;;;;;;;4.90;2.60;;;14.40;50.70;;;;;;4941606;28;20039;-58
2021/04/24 04:55:30;;;;;;;5.43;2.53;;;14.10;52.00;;;;;;4942128;28;20151;-58
2021/04/24 04:57:56;;;;;;;5.05;2.42;;;13.90;52.50;;;;;;4940977;28;20050;-58
2021/04/24 05:00:24;;;;;;;9.35;2.92;;;13.70;52.50;;;;;;4941547;28;20407;-59
2021/04/24 05:02:50;;;;;;;8.25;3.03;;;13.50;51.40;;;;;;4941638;28;20094;-58
2021/04/24 05:05:17;;;;;;;10.25;2.72;;;13.00;50.30;;;;;;4940869;28;20035;-58
2021/04/24 05:07:44;;;;;;;7.55;2.95;;;12.30;50.60;;;;;;4941289;28;20090;-58
2021/04/24 05:10:10;;;;;;;11.13;2.35;;;12.10;52.00;;;;;;4941791;28;20122;-58
2021/04/24 05:12:36;;;;;;;9.30;2.75;;;11.80;52.10;;;;;;4940174;28;20066;-58
2021/04/24 05:15:03;;;;;;;8.75;2.45;;;11.30;52.40;;;;;;4943566;28;20144;-58
2021/04/24 05:17:28;;;;;;;9.15;2.75;;;10.90;53.40;;;;;;4957176;28;20050;-58
2021/04/24 05:19:54;;;;;;;9.70;2.65;;;10.60;54.30;;;;;;4941378;28;20043;-58
2021/04/24 05:22:20;;;;;;;7.13;2.65;;;10.30;54.60;;;;;;4941316;28;20091;-58
2021/04/24 05:24:46;;;;;;;6.18;2.63;;;10.20;56.00;;;;;;4941023;28;20057;-58
2021/04/24 05:27:12;;;;;;;8.40;2.85;;;10.20;58.00;;;;;;4942863;28;20043;-58
2021/04/24 05:29:37;;;;;;;6.20;2.35;;;10.20;57.00;;;;;;4941066;28;20146;-58
2021/04/24 05:32:04;;;;;;;7.28;3.05;;;10.00;56.10;;;;;;4941591;28;20430;-58
2021/04/24 05:34:30;;;;;;;8.85;2.80;;;10.00;56.60;;;;;;4941731;28;20118;-59
2021/04/24 05:36:56;;;;;;;9.63;3.30;;;9.90;57.00;;;;;;4955249;28;20109;-58
2021/04/24 05:39:22;;;;;;;9.57;3.00;;;10.00;56.60;;;;;;4941652;28;20043;-58
2021/04/24 05:41:48;;;;;;;10.18;3.03;;;10.00;56.70;;;;;;4941493;28;20051;-59
2021/04/24 05:44:14;;;;;;;12.80;2.92;;;9.90;56.60;;;;;;4941144;28;20043;-58
2021/04/24 05:46:40;;;;;;;11.88;2.85;;;9.90;56.80;;;;;;4939399;28;20042;-58
2021/04/24 05:49:06;;;;;;;9.48;2.97;;;9.80;56.50;;;;;;4940399;28;20499;-58
2021/04/24 05:51:32;;;;;;;8.20;2.80;;;9.80;57.50;;;;;;4940255;28;20040;-58
2021/04/24 05:53:58;;;;;;;7.47;2.65;;;9.80;57.90;;;;;;4940688;28;20055;-58
2021/04/24 05:56:24;;;;;;;6.38;2.50;;;9.90;58.40;;;;;;4940463;28;20043;-58
2021/04/24 05:58:50;;;;;;;8.52;3.20;;;10.00;57.40;;;;;;4940850;28;20169;-59
2021/04/24 06:01:19;;;;;;;7.15;2.83;;;10.00;57.90;;;;;;4941005;28;20069;-61
2021/04/24 06:03:45;;;;;;;10.90;3.35;;;10.10;57.60;;;;;;4940775;28;20031;-63
2021/04/24 06:06:11;;;;;;;8.68;2.78;;;10.00;57.10;;;;;;4940785;28;20743;-63
2021/04/24 06:08:37;;;;;;;8.18;2.75;;;9.90;57.20;;;;;;4939068;28;20043;-64
2021/04/24 06:11:03;;;;;;;9.30;3.03;;;9.90;57.70;;;;;;4941359;28;20042;-63
2021/04/24 06:13:29;;;;;;;7.20;2.30;;;10.10;58.50;;;;;;4939831;28;20039;-59
2021/04/24 06:15:56;;;;;;;8.30;2.80;;;10.20;58.30;;;;;;4941222;28;20111;-59
2021/04/24 06:18:23;;;;;;;9.90;3.05;;;10.40;58.60;;;;;;4953789;28;20100;-58
2021/04/24 06:20:49;;;;;;;12.95;2.92;;;10.60;58.50;;;;;;4940596;28;20047;-59
2021/04/24 06:23:15;;;;;;;9.68;2.60;;;10.70;57.10;;;;;;4941004;28;20146;-59
2021/04/24 06:25:41;;;;;;;9.60;3.00;;;10.60;55.70;;;;;;4941952;28;20036;-59
2021/04/24 06:28:08;;;;;;;14.43;3.35;;;10.60;55.40;;;;;;4940628;28;20066;-59
2021/04/24 06:30:34;;;;;;;20.75;3.08;;;10.80;56.10;;;;;;4940242;28;20032;-59
2021/04/24 06:33:00;;;;;;;13.07;4.03;;;11.00;56.40;;;;;;4939734;28;20073;-59
2021/04/24 06:35:26;;;;;;;9.90;3.70;;;11.20;55.90;;;;;;4941405;28;20059;-59
2021/04/24 06:37:52;;;;;;;8.48;2.60;;;11.30;54.90;;;;;;4955224;28;20031;-58
2021/04/24 06:40:20;;;;;;;13.00;3.55;;;11.20;53.90;;;;;;4944489;28;20043;-59
2021/04/24 06:42:46;;;;;;;8.20;2.78;;;11.10;54.60;;;;;;4942767;28;20043;-59
2021/04/24 06:45:13;;;;;;;7.72;2.42;;;11.20;56.00;;;;;;4944199;28;20054;-58
2021/04/24 06:47:39;;;;;;;8.15;2.75;;;11.50;57.90;;;;;;4944996;28;20035;-58
2021/04/24 06:50:07;;;;;;;9.82;3.15;;;12.00;57.20;;;;;;4944237;28;20047;-59
2021/04/24 06:52:33;;;;;;;12.50;3.88;;;12.30;54.30;;;;;;4941689;28;20130;-59
2021/04/24 06:54:59;;;;;;;6.63;2.80;;;12.20;52.90;;;;;;4941278;28;20039;-58
2021/04/24 06:57:25;;;;;;;14.20;3.70;;;12.20;53.90;;;;;;4943649;28;20050;-61
2021/04/24 06:59:51;;;;;;;12.93;3.50;;;12.40;53.70;;;;;;4943894;28;20043;-61
2021/04/24 07:02:17;;;;;;;13.38;3.47;;;12.60;52.60;;;;;;4943692;28;20130;-63
2021/04/24 07:04:43;;;;;;;11.10;3.08;;;12.90;52.70;;;;;;4944036;28;20104;-62
2021/04/24 07:07:09;;;;;;;17.55;3.38;;;13.10;51.60;;;;;;4944161;28;20801;-63
2021/04/24 07:09:36;;;;;;;11.77;3.75;;;13.20;50.70;;;;;;4944039;28;20038;-66
2021/04/24 07:12:02;;;;;;;11.40;3.13;;;13.30;50.90;;;;;;4946842;28;20031;-65
2021/04/24 07:14:28;;;;;;;9.32;3.22;;;13.60;51.10;;;;;;4942851;28;20109;-68
2021/04/24 07:16:54;;;;;;;12.88;3.40;;;14.10;50.70;;;;;;4941779;28;20779;-66
2021/04/24 07:19:20;;;;;;;16.00;2.92;;;14.60;50.30;;;;;;4957681;28;20050;-63
2021/04/24 07:21:46;;;;;;;10.85;3.40;;;15.00;48.70;;;;;;4941955;28;20038;-64
2021/04/24 07:24:12;;;;;;;13.10;3.58;;;15.20;47.50;;;;;;4943040;28;20032;-63
2021/04/24 07:26:39;;;;;;;15.00;3.78;;;15.00;47.10;;;;;;4944336;28;20524;-63
2021/04/24 07:29:06;;;;;;;16.70;3.88;;;14.80;47.40;;;;;;4943185;28;20039;-63
2021/04/24 07:31:32;;;;;;;11.25;3.33;;;14.50;47.40;;;;;;4943242;28;20059;-63
2021/04/24 07:33:59;;;;;;;11.60;3.72;;;14.40;47.70;;;;;;4956679;28;20098;-63
2021/04/24 07:36:29;;;;;;;10.85;3.22;;;14.20;47.80;;;;;;4955965;28;20046;-63
2021/04/24 07:38:56;;;;;;;13.85;3.78;;;14.10;47.90;;;;;;4943055;28;20480;-66
2021/04/24 07:41:23;;;;;;;12.60;3.55;;;14.00;48.80;;;;;;4943475;28;20047;-65
2021/04/24 07:43:50;;;;;;;13.35;3.60;;;14.00;49.70;;;;;;4955680;28;20068;-62
2021/04/24 07:46:16;;;;;;;11.90;3.70;;;14.20;49.60;;;;;;4943211;28;20039;-65
2021/04/24 07:48:42;;;;;;;14.82;3.72;;;14.50;49.60;;;;;;4943048;28;20049;-67
2021/04/24 07:51:08;;;;;;;8.38;3.13;;;14.80;48.90;;;;;;4956168;28;20422;-65
2021/04/24 07:53:33;;;;;;;15.88;4.10;;;15.20;48.90;;;;;;4941365;28;20550;-62
2021/04/24 07:55:59;;;;;;;13.18;3.80;;;15.40;47.30;;;;;;4946082;28;20047;-63
2021/04/24 07:58:25;;;;;;;17.13;3.97;;;15.30;46.50;;;;;;4942605;28;20134;-62
2021/04/24 08:00:51;;;;;;;14.77;3.47;;;15.10;46.90;;;;;;4942605;28;20050;-64
2021/04/24 08:03:16;;;;;;;11.52;3.70;;;15.20;47.60;;;;;;4942768;28;20046;-60
2021/04/24 08:05:42;;;;;;;16.42;3.50;;;15.40;48.10;;;;;;4939194;28;20039;-60
2021/04/24 08:08:08;;;;;;;10.95;3.38;;;15.70;47.20;;;;;;4942404;28;20558;-59
2021/04/24 08:10:34;;;;;;;14.15;3.85;;;15.80;47.10;;;;;;4940669;28;20042;-59
2021/04/24 08:13:02;;;;;;;18.02;3.75;;;15.70;46.80;;;;;;4942664;28;20043;-64
2021/04/24 08:15:29;;;;;;;14.48;3.97;;;15.80;46.70;;;;;;4941214;28;20071;-64
2021/04/24 08:17:55;;;;;;;13.68;3.45;;;15.90;46.70;;;;;;4942062;28;20055;-65
2021/04/24 08:20:22;;;;;;;13.38;3.83;;;16.00;46.70;;;;;;4942218;28;20047;-64
2021/04/24 08:22:48;;;;;;;15.15;3.60;;;16.10;46.10;;;;;;4944172;28;20150;-65
2021/04/24 08:25:14;;;;;;;15.95;4.03;;;16.10;44.90;;;;;;4941134;28;20031;-64
2021/04/24 08:27:40;;;;;;;14.52;3.60;;;16.00;44.60;;;;;;4954352;28;20059;-63
2021/04/24 08:30:08;;;;;;;11.65;3.33;;;15.90;45.40;;;;;;4941937;28;20039;-65
2021/04/24 08:32:35;;;;;;;13.50;3.53;;;15.90;45.30;;;;;;4942054;28;20047;-59
2021/04/24 08:35:01;;;;;;;15.07;3.05;;;15.90;44.50;;;;;;4942179;28;20106;-59
2021/04/24 08:37:27;;;;;;;10.68;3.15;;;15.80;44.40;;;;;;4941294;28;20043;-59
2021/04/24 08:39:53;;;;;;;11.98;3.25;;;15.80;44.60;;;;;;4941680;28;20036;-58
2021/04/24 08:42:19;;;;;;;14.18;3.70;;;15.90;44.70;;;;;;4941516;28;20888;-59
2021/04/24 08:44:49;;;;;;;14.88;3.42;;;16.10;44.20;;;;;;4942554;28;20043;-58
2021/04/24 08:47:15;;;;;;;17.45;3.72;;;16.20;43.90;;;;;;4942644;28;20067;-58
2021/04/24 08:49:41;;;;;;;14.00;3.10;;;16.30;44.00;;;;;;4942466;28;20043;-58
2021/04/24 08:52:07;;;;;;;14.18;3.33;;;16.50;43.80;;;;;;4941622;28;20074;-58
2021/04/24 08:54:33;;;;;;;12.18;2.92;;;16.60;43.40;;;;;;4940639;28;20910;-59
2021/04/24 08:56:59;;;;;;;12.32;3.95;;;16.60;42.50;;;;;;4942281;28;20416;-59
2021/04/24 08:59:24;;;;;;;18.13;3.20;;;16.50;43.40;;;;;;4945119;28;20039;-59
2021/04/24 09:01:50;;;;;;;8.88;3.03;;;16.60;43.40;;;;;;4942361;28;20043;-59
2021/04/24 09:04:17;;;;;;;10.18;3.10;;;16.70;43.10;;;;;;4942088;28;20038;-59
2021/04/24 09:06:43;;;;;;;8.82;3.45;;;16.80;43.10;;;;;;4940471;28;20043;-59
2021/04/24 09:09:11;;;;;;;12.30;3.42;;;17.00;42.70;;;;;;4940983;28;20097;-59
2021/04/24 09:11:45;;;;;;;16.67;3.15;;;17.20;41.80;;;;;;4940455;28;20036;-59
2021/04/24 09:14:14;;;;;;;18.63;2.70;;;17.40;41.20;;;;;;4942016;28;20057;-59
2021/04/24 09:16:41;;;;;;;11.77;2.90;;;17.30;40.70;;;;;;4941295;28;20106;-59
2021/04/24 09:19:36;;;;;;;11.57;3.70;;;17.30;41.10;;;;;;4941202;28;20039;-59
2021/04/24 09:22:17;;;;;;;13.10;3.00;;;17.30;41.50;;;;;;4939159;28;20047;-59
2021/04/24 09:24:44;;;;;;;11.65;2.97;;;17.20;41.10;;;;;;4939672;28;20680;-59
2021/04/24 09:27:11;;;;;;;10.02;3.00;;;17.10;41.00;;;;;;4941207;28;20534;-57
2021/04/24 09:29:36;;;;;;;10.23;2.55;;;17.30;40.80;;;;;;4941647;28;20118;-58
2021/04/24 09:32:15;;;;;;;9.80;2.50;;;17.30;40.10;;;;;;4941763;28;20122;-58
2021/04/24 09:34:42;;;;;;;7.30;2.42;;;17.50;39.70;;;;;;4939910;28;20047;-58
2021/04/24 09:37:18;;;;;;;10.15;2.30;;;17.60;39.60;;;;;;4937511;28;20043;-58
2021/04/24 09:39:46;;;;;;;10.40;2.90;;;17.60;39.00;;;;;;4941223;28;20047;-58
2021/04/24 09:42:37;;;;;;;13.77;2.90;;;17.60;39.40;;;;;;4939939;28;20122;-58
2021/04/24 09:45:26;;;;;;;9.77;2.78;;;17.50;39.70;;;;;;4941716;28;20050;-58
2021/04/24 09:47:53;;;;;;;9.15;2.60;;;17.50;39.60;;;;;;4938077;28;20051;-60
2021/04/24 09:50:29;;;;;;;15.23;2.45;;;17.60;39.30;;;;;;4940563;28;20184;-58
2021/04/24 09:53:24;;;;;;;11.90;3.78;;;17.50;38.50;;;;;;4941183;28;20053;-59
2021/04/24 09:55:54;;;;;;;12.18;2.92;;;17.50;39.70;;;;;;4941091;28;20390;-58
2021/04/24 09:58:36;;;;;;;17.58;3.10;;;17.30;38.90;;;;;;4941490;28;20437;-57
2021/04/24 10:01:25;;;;;;;13.70;4.43;;;17.10;39.80;;;;;;4940658;28;20348;-61
2021/04/24 10:03:52;;;;;;;11.77;3.40;;;16.80;40.50;;;;;;4938632;28;20043;-59
2021/04/24 10:06:21;;;;;;;13.02;3.40;;;16.50;41.20;;;;;;4940792;28;20035;-61
2021/04/24 10:08:48;;;;;;;11.52;3.15;;;16.40;42.60;;;;;;4941324;28;20039;-60
2021/04/24 10:11:30;;;;;;;13.32;3.95;;;16.60;42.90;;;;;;4938520;28;20063;-58
2021/04/24 10:13:55;;;;;;;16.08;3.17;;;16.50;42.40;;;;;;4938896;28;20044;-59
2021/04/24 10:16:38;;;;;;;13.93;2.58;;;16.40;42.50;;;;;;4943328;28;20059;-59
2021/04/24 10:19:13;;;;;;;13.50;2.80;;;16.40;41.60;;;;;;4957292;28;20051;-59
2021/04/24 10:21:40;;;;;;;9.98;2.50;;;16.30;41.40;;;;;;4944926;28;20102;-61
2021/04/24 10:24:07;;;;;;;9.30;2.05;;;16.20;41.40;;;;;;4944461;28;20117;-59
2021/04/24 10:26:35;;;;;;;9.32;4.07;;;16.10;41.20;;;;;;4943275;28;20043;-65
2021/04/24 10:29:01;;;;;;;13.02;4.10;;;16.10;43.40;;;;;;4943187;28;20122;-65
2021/04/24 10:31:28;;;;;;;13.10;2.13;;;16.20;42.10;;;;;;4943385;28;20050;-60
2021/04/24 10:34:01;;;;;;;10.50;2.42;;;16.10;40.70;;;;;;4943855;28;20043;-65
2021/04/24 10:36:28;;;;;;;11.23;2.85;;;16.00;41.10;;;;;;4945304;28;20059;-64
2021/04/24 10:38:55;;;;;;;16.15;3.00;;;15.80;42.10;;;;;;4944688;28;20043;-64
2021/04/24 10:41:43;;;;;;;12.27;3.47;;;15.70;42.30;;;;;;4943659;28;20435;-64
2021/04/24 10:44:11;;;;;;;12.38;3.30;;;15.60;42.80;;;;;;4957979;28;20137;-63
2021/04/24 10:46:48;;;;;;;12.73;3.60;;;15.70;42.80;;;;;;4944202;28;20046;-64
2021/04/24 10:49:18;;;;;;;17.13;4.55;;;15.80;43.20;;;;;;4943814;28;20039;-64
2021/04/24 10:52:19;;;;;;;16.30;3.35;;;15.90;44.80;;;;;;4943684;28;20054;-64
2021/04/24 10:55:17;;;;;;;13.73;2.97;;;16.10;43.90;;;;;;4944146;28;20047;-64
2021/04/24 10:57:56;;;;;;;10.60;3.15;;;16.20;43.90;;;;;;4943397;28;20440;-63
2021/04/24 11:00:23;;;;;;;10.20;2.80;;;16.20;42.60;;;;;;4944488;28;20602;-64
2021/04/24 11:02:56;;;;;;;9.32;2.47;;;16.10;41.00;;;;;;4943631;28;20483;-64
2021/04/24 11:05:44;;;;;;;11.18;3.03;;;15.90;41.30;;;;;;4943812;28;20803;-63
2021/04/24 11:10:49;;;;;;;9.82;2.67;;;15.50;44.80;;;;;;4942362;28;20050;-63
2021/04/24 11:13:16;;;;;;;15.85;3.53;;;15.50;44.00;;;;;;4944292;28;20054;-63
2021/04/24 11:15:43;;;;;;;14.23;3.50;;;15.50;43.40;;;;;;4957764;28;20054;-64
2021/04/24 11:18:11;;;;;;;10.25;3.63;;;15.50;43.90;;;;;;4943625;28;20050;-63
2021/04/24 11:20:47;;;;;;;12.23;3.22;;;15.60;44.30;;;;;;4943334;28;20047;-63
2021/04/24 11:23:32;;;;;;;10.98;3.00;;;15.60;43.70;;;;;;4942937;28;20381;-63
2021/04/24 11:25:59;;;;;;;10.88;2.42;;;15.80;43.00;;;;;;4942887;28;20043;-63
2021/04/24 11:28:26;;;;;;;12.32;2.45;;;15.80;42.00;;;;;;4953633;28;20135;-63
2021/04/24 11:30:54;;;;;;;10.40;2.60;;;15.70;41.30;;;;;;4942173;28;20035;-63
2021/04/24 11:33:42;;;;;;;10.88;2.50;;;15.60;41.80;;;;;;4942482;28;20043;-63
2021/04/24 11:39:01;;;;;;;7.85;2.67;;;15.50;42.00;;;;;;4941870;28;20481;-63
2021/04/24 11:41:39;;;;;;;11.30;2.25;;;15.30;42.00;;;;;;4941991;28;20035;-63
2021/04/24 11:44:17;;;;;;;15.60;3.05;;;15.10;42.30;;;;;;4942937;28;20483;-63
2021/04/24 11:46:48;;;;;;;9.35;2.90;;;15.00;41.80;;;;;;4942652;28;20648;-63
2021/04/24 11:49:15;;;;;;;9.77;2.30;;;14.90;43.80;;;;;;4941657;28;20047;-62
2021/04/24 11:51:48;;;;;;;12.95;2.47;;;14.80;43.10;;;;;;4955999;28;20051;-63
2021/04/24 11:54:38;;;;;;;10.38;2.42;;;14.90;42.30;;;;;;4942468;28;20070;-63
2021/04/24 11:57:13;;;;;;;5.90;1.80;;;14.70;40.70;;;;;;4941168;28;20043;-64
2021/04/24 11:59:41;;;;;;;8.30;2.03;;;14.40;40.60;;;;;;4941747;28;20924;-64
2021/04/24 12:02:16;;;;;;;10.02;1.90;;;14.10;41.10;;;;;;4953401;28;20050;-64
2021/04/24 12:04:42;;;;;;;7.60;1.70;;;14.00;41.00;;;;;;4941106;28;20043;-63
2021/04/24 12:07:18;;;;;;;5.93;1.73;;;13.90;41.30;;;;;;4941225;28;20042;-63
2021/04/24 12:09:58;;;;;;;7.47;1.70;;;13.90;41.00;;;;;;4942857;28;20047;-64
2021/04/24 12:12:39;;;;;;;5.82;1.40;;;14.00;40.70;;;;;;4942698;28;20047;-65
2021/04/24 12:15:25;;;;;;;9.75;1.67;;;13.90;39.40;;;;;;4942269;28;20384;-64
2021/04/24 12:17:55;;;;;;;8.05;1.88;;;13.70;39.30;;;;;;4943041;28;20051;-64
2021/04/24 12:20:29;;;;;;;8.13;1.90;;;13.60;40.00;;;;;;4942820;28;20043;-64
2021/04/24 12:22:57;;;;;;;6.72;1.63;;;13.40;39.60;;;;;;4943485;28;20054;-63
2021/04/24 12:25:27;;;;;;;5.97;1.60;;;13.30;39.90;;;;;;4942092;28;20074;-63
2021/04/24 12:27:54;;;;;;;9.52;2.65;;;13.10;40.20;;;;;;4941742;28;20035;-64
2021/04/24 12:30:26;;;;;;;8.40;2.10;;;13.10;40.40;;;;;;4942713;28;20031;-64
2021/04/24 12:32:55;;;;;;;6.93;1.63;;;13.10;41.10;;;;;;4940462;28;20051;-63
2021/04/24 12:35:29;;;;;;;8.13;1.98;;;13.10;41.80;;;;;;4943166;28;20061;-63
2021/04/24 12:38:05;;;;;;;11.10;2.38;;;13.10;40.80;;;;;;4943042;28;20039;-63
2021/04/24 12:40:36;;;;;;;7.47;1.80;;;13.10;40.70;;;;;;4941059;28;20070;-64
2021/04/24 12:43:33;;;;;;;6.90;1.48;;;13.00;41.10;;;;;;4942163;28;20903;-63
2021/04/24 12:46:01;;;;;;;5.80;1.65;;;13.00;40.40;;;;;;4941872;28;20042;-63
2021/04/24 12:48:42;;;;;;;5.13;1.60;;;12.90;40.20;;;;;;4942405;28;20051;-63
2021/04/24 12:51:13;;;;;;;5.82;2.20;;;12.80;41.10;;;;;;4942132;28;20555;-62
2021/04/24 12:53:41;;;;;;;10.98;2.47;;;12.80;43.00;;;;;;4942367;28;20093;-62
2021/04/24 12:56:19;;;;;;;4.00;1.10;;;12.90;42.50;;;;;;4942047;28;20167;-62